Time;durP1;ratioP1;P1;durP2;ratioP2;P2;SDS_P1;SDS_P2;PMS_P1;PMS_P2;Temp;Humidity;BMP_temperature;BMP_pressure;BME280_temperature;BME280_humidity;BME280_pressure;Samples;Min_cycle;Max_cycle;Signal;HPM_P1;HPM_P2
2022/12/17 13:06:48;;;;;;;4.93;3.57;;;2.90;95.70;;;;;;5040103;28;20447;-63
2022/12/17 13:09:14;;;;;;;4.20;3.50;;;2.80;95.10;;;;;;5059402;28;20441;-64
2022/12/17 13:11:40;;;;;;;3.43;3.10;;;2.80;93.60;;;;;;5076616;28;20437;-64
2022/12/17 13:14:14;;;;;;;4.00;3.27;;;2.80;94.60;;;;;;5027705;28;20205;-62
2022/12/17 13:16:51;;;;;;;3.93;2.83;;;2.80;92.90;;;;;;5051249;28;20466;-62
2022/12/17 13:19:40;;;;;;;3.93;3.13;;;2.90;88.30;;;;;;5038373;28;20425;-62
2022/12/17 13:22:15;;;;;;;2.90;2.63;;;2.90;83.00;;;;;;5038682;28;20428;-63
2022/12/17 13:24:46;;;;;;;4.63;3.00;;;2.90;89.70;;;;;;5057856;28;20417;-63
2022/12/17 13:27:38;;;;;;;3.70;2.90;;;3.00;89.80;;;;;;5049029;28;20420;-63
2022/12/17 13:30:16;;;;;;;2.70;2.50;;;3.00;91.60;;;;;;5046603;28;20418;-63
2022/12/17 13:33:03;;;;;;;2.70;2.50;;;3.10;92.80;;;;;;5044773;28;20420;-63
2022/12/17 13:36:06;;;;;;;3.80;2.60;;;3.20;92.10;;;;;;5055702;28;20423;-63
2022/12/17 13:38:41;;;;;;;4.00;2.90;;;3.30;92.10;;;;;;5062329;28;20435;-63
2022/12/17 13:41:10;;;;;;;2.90;2.60;;;3.30;90.10;;;;;;5055232;28;20433;-63
2022/12/17 13:43:56;;;;;;;2.90;2.30;;;3.30;90.20;;;;;;5040420;28;20424;-64
2022/12/17 13:46:23;;;;;;;3.13;2.83;;;3.30;89.30;;;;;;5038271;28;20551;-65
2022/12/17 13:49:01;;;;;;;3.27;2.80;;;3.30;88.40;;;;;;5043769;28;20432;-64
2022/12/17 13:51:30;;;;;;;2.97;2.67;;;3.30;88.70;;;;;;5044137;28;20429;-64
2022/12/17 13:54:03;;;;;;;3.43;2.87;;;3.30;88.20;;;;;;5041687;28;20444;-64
2022/12/17 13:56:32;;;;;;;2.73;2.13;;;3.40;90.40;;;;;;5041790;28;20460;-64
2022/12/17 13:59:01;;;;;;;2.97;2.50;;;3.40;86.30;;;;;;5035346;28;20441;-64
2022/12/17 14:01:27;;;;;;;3.23;2.43;;;3.40;88.10;;;;;;5051184;28;20881;-64
2022/12/17 14:03:58;;;;;;;3.13;2.50;;;3.40;83.30;;;;;;5043883;28;20414;-64
2022/12/17 14:06:32;;;;;;;3.30;2.50;;;3.50;86.40;;;;;;5047034;28;20433;-64
2022/12/17 14:08:58;;;;;;;5.10;2.53;;;3.40;83.20;;;;;;5041346;28;20413;-74
2022/12/17 14:14:16;;;;;;;2.87;2.43;;;;;;;;;;5051800;28;20247;-75
2022/12/17 14:16:42;;;;;;;3.90;2.77;;;;;;;;;;5055334;28;20924;-74
2022/12/17 14:19:09;;;;;;;2.60;2.40;;;;;;;;;;5026870;28;20440;-75
2022/12/17 14:21:36;;;;;;;3.47;2.60;;;;;;;;;;5036136;28;20477;-70
2022/12/17 14:24:03;;;;;;;2.90;2.47;;;;;;;;;;5056506;28;20441;-70
2022/12/17 14:26:29;;;;;;;2.80;2.50;;;;;;;;;;5043038;28;20515;-69
2022/12/17 14:28:55;;;;;;;4.00;3.07;;;;;;;;;;5037778;28;20435;-66
2022/12/17 14:31:22;;;;;;;3.93;2.63;;;;;;;;;;5039084;28;20468;-67
2022/12/17 14:33:59;;;;;;;3.83;2.77;;;;;;;;;;5046287;28;20444;-67
2022/12/17 14:36:26;;;;;;;2.77;2.50;;;;;;;;;;5047429;28;20573;-66
2022/12/17 14:38:54;;;;;;;4.17;3.13;;;;;;;;;;5038421;28;20433;-66
2022/12/17 14:44:05;;;;;;;4.43;2.70;;;;;;;;;;5041840;28;20412;-66
2022/12/17 14:46:32;;;;;;;5.00;3.10;;;;;;;;;;5048316;28;20507;-67
2022/12/17 14:48:59;;;;;;;3.53;2.73;;;;;;;;;;5053134;28;20495;-68
2022/12/17 14:51:29;;;;;;;3.30;2.80;;;;;;;;;;5057894;28;20429;-69
2022/12/17 14:54:05;;;;;;;3.37;2.70;;;;;;;;;;5051501;28;20473;-66
2022/12/17 14:56:31;;;;;;;3.47;2.77;;;;;;;;;;5056795;28;20572;-67
2022/12/17 14:58:57;;;;;;;3.40;2.77;;;;;;;;;;5048852;28;21554;-68
2022/12/17 15:01:23;;;;;;;4.13;2.70;;;;;;;;;;5041087;28;20446;-70
2022/12/17 15:03:49;;;;;;;2.50;2.20;;;;;;;;;;5046993;28;20511;-68
2022/12/17 15:06:16;;;;;;;4.57;2.90;;;;;;;;;;5050198;28;20520;-67
2022/12/17 15:08:45;;;;;;;3.33;2.87;;;;;;;;;;5050550;28;20440;-66
2022/12/17 15:11:12;;;;;;;3.63;2.80;;;;;;;;;;5045704;28;20449;-66
2022/12/17 15:13:38;;;;;;;3.40;2.60;;;;;;;;;;5047448;28;20433;-68
2022/12/17 15:16:05;;;;;;;2.83;2.57;;;;;;;;;;5048693;28;20564;-67
2022/12/17 15:18:31;;;;;;;3.43;2.83;;;;;;;;;;5041193;28;20486;-68
2022/12/17 15:20:57;;;;;;;4.10;3.70;;;;;;;;;;5044001;28;20437;-68
2022/12/17 15:23:24;;;;;;;5.03;3.60;;;;;;;;;;5033997;28;20195;-66
2022/12/17 15:25:51;;;;;;;5.00;3.80;;;;;;;;;;5051931;28;20955;-66
2022/12/17 15:28:17;;;;;;;9.80;6.20;;;;;;;;;;5065415;28;20420;-65
2022/12/17 15:30:44;;;;;;;15.47;9.90;;;;;;;;;;5042923;28;20559;-67
2022/12/17 15:33:10;;;;;;;12.97;9.00;;;;;;;;;;5045762;28;20434;-67
2022/12/17 15:35:37;;;;;;;11.30;8.33;;;;;;;;;;5049563;28;20417;-67
2022/12/17 15:38:04;;;;;;;11.23;7.83;;;;;;;;;;5056342;28;20452;-67
2022/12/17 15:40:30;;;;;;;12.67;8.03;;;;;;;;;;5062541;28;20436;-67
2022/12/17 15:43:11;;;;;;;17.73;12.47;;;;;;;;;;5041417;28;20476;-67
2022/12/17 15:45:39;;;;;;;21.90;15.10;;;;;;;;;;5042619;28;20530;-68
2022/12/17 15:48:05;;;;;;;24.67;16.10;;;;;;;;;;5051111;28;20435;-66
2022/12/17 15:50:31;;;;;;;22.50;15.43;;;;;;;;;;5046421;28;20461;-66
2022/12/17 15:52:57;;;;;;;23.53;17.27;;;;;;;;;;5047644;28;20440;-67
2022/12/17 15:55:23;;;;;;;24.33;17.43;;;;;;;;;;5036993;28;20520;-67
2022/12/17 15:57:49;;;;;;;25.77;16.77;;;;;;;;;;5036275;28;20485;-68
2022/12/17 16:00:15;;;;;;;24.33;16.27;;;;;;;;;;5035876;28;20447;-68
2022/12/17 16:02:42;;;;;;;22.23;15.10;;;;;;;;;;5030676;28;20473;-68
2022/12/17 16:05:08;;;;;;;19.23;13.23;;;;;;;;;;5027399;28;20433;-68
2022/12/17 16:07:35;;;;;;;16.67;10.93;;;;;;;;;;5032913;28;20446;-68
2022/12/17 16:10:02;;;;;;;17.47;11.27;;;;;;;;;;5054511;28;20508;-68
2022/12/17 16:12:28;;;;;;;17.67;11.87;;;;;;;;;;5047919;28;20418;-68
2022/12/17 16:14:54;;;;;;;19.47;12.90;;;;;;;;;;5033498;28;20444;-68
2022/12/17 16:17:20;;;;;;;20.90;15.37;;;;;;;;;;5033915;28;20995;-68
2022/12/17 16:19:46;;;;;;;23.63;15.40;;;;;;;;;;5040852;28;20490;-68
2022/12/17 16:22:12;;;;;;;26.17;16.63;;;;;;;;;;5029656;28;20441;-68
2022/12/17 16:24:39;;;;;;;24.73;16.60;;;;;;;;;;5021585;28;20426;-68
2022/12/17 16:27:06;;;;;;;23.97;16.73;;;;;;;;;;5047424;28;20504;-69
2022/12/17 16:29:32;;;;;;;19.97;14.07;;;;;;;;;;5033150;28;20444;-69
2022/12/17 16:31:59;;;;;;;18.70;12.63;;;;;;;;;;5047846;28;20429;-69
2022/12/17 16:34:25;;;;;;;17.97;12.57;;;;;;;;;;5020883;28;20505;-69
2022/12/17 16:36:52;;;;;;;20.87;13.07;;;;;;;;;;5033273;28;20465;-69
2022/12/17 16:39:18;;;;;;;26.00;17.50;;;;;;;;;;5033084;28;20434;-69
2022/12/17 16:41:45;;;;;;;27.10;18.40;;;;;;;;;;5044527;28;20430;-70
2022/12/17 16:44:11;;;;;;;25.90;18.43;;;;;;;;;;5031873;28;20466;-70
2022/12/17 16:46:38;;;;;;;24.80;17.17;;;;;;;;;;5057933;28;20491;-67
2022/12/17 16:49:06;;;;;;;26.40;17.10;;;;;;;;;;5035210;28;20445;-68
2022/12/17 16:51:32;;;;;;;29.13;18.97;;;;;;;;;;5049168;28;20446;-69
2022/12/17 16:53:58;;;;;;;34.00;21.37;;;;;;;;;;5044165;28;20472;-71
2022/12/17 16:56:26;;;;;;;31.03;20.43;;;;;;;;;;5032654;28;20473;-70
2022/12/17 16:58:52;;;;;;;36.30;24.10;;;;;;;;;;5045920;28;20425;-66
2022/12/17 17:01:20;;;;;;;33.57;21.83;;;;;;;;;;5056620;28;20524;-70
2022/12/17 17:03:46;;;;;;;27.13;19.17;;;;;;;;;;5039327;28;20442;-73
2022/12/17 17:06:12;;;;;;;40.53;24.90;;;;;;;;;;5046162;28;20433;-69
2022/12/17 17:08:39;;;;;;;32.60;19.73;;;;;;;;;;5040094;28;20432;-70
2022/12/17 17:11:16;;;;;;;23.97;16.70;;;;;;;;;;5056181;28;20426;-69
2022/12/17 17:13:42;;;;;;;25.73;16.83;;;;;;;;;;5066686;28;20466;-69
2022/12/17 17:16:09;;;;;;;27.73;15.53;;;;;;;;;;5041908;28;20515;-68
2022/12/17 17:18:36;;;;;;;29.70;17.67;;;;;;;;;;5042573;28;20449;-68
2022/12/17 17:21:33;;;;;;;31.63;18.10;;;;;;;;;;5049876;28;20429;-69
2022/12/17 17:24:00;;;;;;;36.20;19.90;;;;;;;;;;5039127;28;20491;-67
2022/12/17 17:26:27;;;;;;;39.63;23.57;;;;;;;;;;5051908;28;20516;-67
2022/12/17 17:28:54;;;;;;;39.00;21.33;;;;;;;;;;5049365;28;20431;-71
2022/12/17 17:31:22;;;;;;;33.33;18.97;;;0.40;99.90;;;;;;5044904;28;20510;-68
2022/12/17 17:33:49;;;;;;;34.47;19.63;;;0.20;99.90;;;;;;5046220;28;20441;-68
2022/12/17 17:36:17;;;;;;;30.37;18.87;;;0.20;99.90;;;;;;5053527;28;20471;-68
2022/12/17 17:38:44;;;;;;;26.57;18.27;;;0.20;99.90;;;;;;5049282;28;20445;-68
2022/12/17 17:41:13;;;;;;;25.63;17.70;;;0.20;99.90;;;;;;5048197;28;20480;-69
2022/12/17 17:43:39;;;;;;;29.57;18.47;;;0.20;99.90;;;;;;5051054;28;20524;-69
2022/12/17 17:46:14;;;;;;;26.00;18.27;;;0.30;99.90;;;;;;5049372;28;20572;-69
2022/12/17 17:48:40;;;;;;;30.27;18.10;;;0.20;99.90;;;;;;5043598;28;20214;-69
2022/12/17 17:51:10;;;;;;;23.47;16.43;;;0.20;99.90;;;;;;5036026;28;20504;-70
2022/12/17 17:53:37;;;;;;;27.83;16.90;;;0.20;99.90;;;;;;5052838;28;20455;-70
2022/12/17 17:56:14;;;;;;;26.17;17.93;;;0.20;99.90;;;;;;5048750;28;20473;-71
2022/12/17 17:58:42;;;;;;;29.13;18.13;;;0.20;99.90;;;;;;5037432;28;20439;-70
2022/12/17 18:01:13;;;;;;;26.10;17.27;;;0.10;99.90;;;;;;5043049;28;20431;-74
2022/12/17 18:03:39;;;;;;;34.67;21.50;;;0.20;99.90;;;;;;5049075;28;20475;-74
2022/12/17 18:06:08;;;;;;;33.60;20.00;;;0.10;99.90;;;;;;5051443;28;20487;-73
2022/12/17 18:08:36;;;;;;;28.17;20.00;;;0.10;99.90;;;;;;5032100;28;20198;-73
2022/12/17 18:11:04;;;;;;;30.17;19.87;;;0.10;99.90;;;;;;5043341;28;20498;-72
2022/12/17 18:16:17;;;;;;;32.83;20.23;;;0.00;99.90;;;;;;5049731;28;20464;-72
2022/12/17 18:18:43;;;;;;;34.07;20.80;;;0.00;99.90;;;;;;5038793;28;20440;-71
2022/12/17 18:21:14;;;;;;;27.87;19.33;;;0.00;99.90;;;;;;5039499;28;20210;-71
2022/12/17 18:23:40;;;;;;;35.37;21.17;;;0.00;99.90;;;;;;5042184;28;20528;-71
2022/12/17 18:26:12;;;;;;;27.53;18.47;;;0.00;99.90;;;;;;5030275;28;20438;-74
2022/12/17 18:28:38;;;;;;;28.80;19.70;;;0.00;99.90;;;;;;5039665;28;20473;-72
2022/12/17 18:31:06;;;;;;;30.97;19.57;;;-0.10;99.80;;;;;;5044673;28;20509;-72
2022/12/17 18:33:32;;;;;;;36.83;20.53;;;-0.10;99.90;;;;;;5038226;28;20448;-73
2022/12/17 18:35:57;;;;;;;37.30;21.53;;;-0.10;99.90;;;;;;5038189;28;20923;-75
2022/12/17 18:38:23;;;;;;;31.60;21.43;;;-0.20;99.60;;;;;;5037283;28;20202;-74
2022/12/17 18:40:49;;;;;;;30.23;18.80;;;-0.20;99.80;;;;;;5034013;28;20202;-72
2022/12/17 18:43:23;;;;;;;30.03;19.43;;;-0.10;99.90;;;;;;5045317;28;20260;-73
2022/12/17 18:45:52;;;;;;;32.23;19.57;;;-0.20;99.80;;;;;;5019292;28;20233;-75
2022/12/17 18:48:19;;;;;;;30.40;20.60;;;-0.30;99.70;;;;;;5029030;28;20435;-70
2022/12/17 18:50:45;;;;;;;32.83;21.50;;;-0.30;99.70;;;;;;5061096;28;20422;-72
2022/12/17 18:53:11;;;;;;;31.77;20.80;;;-0.40;99.60;;;;;;5030930;28;20445;-67
2022/12/17 18:55:40;;;;;;;35.13;20.53;;;-0.40;99.90;;;;;;5050270;28;20420;-67
2022/12/17 18:58:09;;;;;;;29.57;19.03;;;-0.40;99.90;;;;;;5031281;28;20480;-68
2022/12/17 19:00:36;;;;;;;29.77;19.23;;;-0.40;99.90;;;;;;5065549;28;20428;-69
2022/12/17 19:03:04;;;;;;;34.63;20.43;;;-0.50;99.70;;;;;;5045199;28;20426;-68
2022/12/17 19:05:30;;;;;;;36.40;21.97;;;-0.50;99.70;;;;;;5038246;28;20436;-69
2022/12/17 19:07:56;;;;;;;40.87;21.33;;;-0.60;99.80;;;;;;5027780;28;20443;-70
2022/12/17 19:10:21;;;;;;;33.03;20.50;;;-0.60;99.90;;;;;;5035029;28;20433;-69
2022/12/17 19:12:47;;;;;;;33.93;19.57;;;-0.60;99.70;;;;;;5037453;28;20190;-68
2022/12/17 19:15:13;;;;;;;30.73;19.83;;;-0.70;99.60;;;;;;5042305;28;20221;-72
2022/12/17 19:17:39;;;;;;;33.87;20.33;;;-0.70;99.40;;;;;;5039552;28;20211;-66
2022/12/17 19:20:05;;;;;;;31.67;19.10;;;-0.70;99.40;;;;;;5027635;28;20202;-66
2022/12/17 19:22:31;;;;;;;42.00;21.60;;;-1.00;98.60;;;;;;5028347;28;20673;-67
2022/12/17 19:24:56;;;;;;;39.97;22.90;;;-1.10;98.40;;;;;;5030416;28;20414;-67
2022/12/17 19:27:23;;;;;;;37.03;22.80;;;-1.10;99.10;;;;;;5020477;28;20190;-67
2022/12/17 19:29:53;;;;;;;36.40;22.30;;;-1.20;99.20;;;;;;5031239;28;20193;-67
2022/12/17 19:32:19;;;;;;;30.33;20.03;;;-1.10;99.90;;;;;;5049805;28;20429;-66
2022/12/17 19:34:45;;;;;;;38.33;22.57;;;-1.10;99.90;;;;;;5059499;28;20460;-67
2022/12/17 19:37:11;;;;;;;35.80;20.13;;;-1.10;99.80;;;;;;5027217;28;20225;-67
2022/12/17 19:39:36;;;;;;;33.40;20.03;;;-1.10;99.90;;;;;;5013018;28;20186;-66
2022/12/17 19:42:02;;;;;;;35.43;20.37;;;-1.10;99.90;;;;;;5030689;28;20270;-66
2022/12/17 19:44:28;;;;;;;35.43;21.77;;;-1.00;99.90;;;;;;5032850;28;20280;-66
2022/12/17 19:46:55;;;;;;;34.97;21.63;;;-1.00;99.90;;;;;;5026853;28;20240;-67
2022/12/17 19:49:20;;;;;;;31.33;19.47;;;-1.00;99.90;;;;;;5012125;28;20190;-66
2022/12/17 19:51:47;;;;;;;28.97;18.70;;;-1.00;99.90;;;;;;5026686;28;20431;-67
2022/12/17 19:54:13;;;;;;;27.47;17.60;;;-1.00;99.60;;;;;;5027954;28;20194;-66
2022/12/17 19:56:39;;;;;;;30.13;18.63;;;-0.90;99.60;;;;;;5049980;28;20476;-66
2022/12/17 19:59:06;;;;;;;27.70;17.57;;;-1.00;99.60;;;;;;5048140;28;20191;-66
2022/12/17 20:01:35;;;;;;;29.57;16.33;;;-1.00;99.30;;;;;;5012827;28;20517;-66
2022/12/17 20:04:02;;;;;;;24.80;15.90;;;-1.00;99.70;;;;;;5063422;28;20464;-74
2022/12/17 20:06:30;;;;;;;23.13;15.97;;;-1.00;99.80;;;;;;5019420;28;20476;-73
2022/12/17 20:09:00;;;;;;;24.53;15.83;;;-1.00;99.50;;;;;;5046093;28;20452;-73
2022/12/17 20:11:32;;;;;;;25.17;16.40;;;-1.10;98.70;;;;;;5063686;28;20470;-73
2022/12/17 20:14:01;;;;;;;25.97;16.67;;;-1.10;99.00;;;;;;5037870;28;20435;-73
2022/12/17 20:16:29;;;;;;;30.13;18.17;;;-1.10;98.80;;;;;;5042329;28;20488;-73
2022/12/17 20:18:56;;;;;;;27.60;17.00;;;-1.10;98.50;;;;;;5028746;28;20464;-73
2022/12/17 20:21:22;;;;;;;23.53;17.17;;;-1.10;98.20;;;;;;5043361;28;20455;-73
2022/12/17 20:23:48;;;;;;;31.20;17.20;;;-1.20;98.20;;;;;;5040626;28;20471;-73
2022/12/17 20:26:15;;;;;;;28.30;18.27;;;-1.20;98.20;;;;;;5046142;28;20179;-73
2022/12/17 20:28:40;;;;;;;29.03;17.83;;;-1.30;98.40;;;;;;5022890;28;20201;-73
2022/12/17 20:31:06;;;;;;;29.30;18.50;;;-1.30;98.00;;;;;;5027751;28;20453;-72
2022/12/17 20:33:32;;;;;;;30.13;20.00;;;-1.30;97.70;;;;;;5048739;28;20195;-73
2022/12/17 20:36:03;;;;;;;36.57;20.80;;;-1.30;97.80;;;;;;5050905;28;20649;-72
2022/12/17 20:38:29;;;;;;;38.20;22.13;;;-1.30;97.20;;;;;;5038518;28;20462;-72
2022/12/17 20:40:55;;;;;;;47.70;24.23;;;-1.30;96.70;;;;;;5022045;28;20753;-73
2022/12/17 20:43:21;;;;;;;36.40;23.50;;;-1.30;97.00;;;;;;5036224;28;20187;-72
2022/12/17 20:45:53;;;;;;;33.80;20.67;;;-1.30;96.70;;;;;;5024640;28;20264;-72
2022/12/17 20:48:21;;;;;;;30.67;19.47;;;-1.30;96.50;;;;;;5018806;28;20220;-72
2022/12/17 20:50:47;;;;;;;33.77;19.20;;;-1.30;96.40;;;;;;5052768;28;20434;-72
2022/12/17 20:53:13;;;;;;;32.37;18.60;;;-1.30;96.70;;;;;;5057507;28;20949;-72
2022/12/17 20:55:38;;;;;;;27.00;16.53;;;-1.30;96.70;;;;;;5043270;28;20434;-72
2022/12/17 20:58:04;;;;;;;28.63;17.73;;;-1.30;96.70;;;;;;5051674;28;20214;-71
2022/12/17 21:00:30;;;;;;;27.93;16.70;;;-1.30;96.90;;;;;;5041247;28;20305;-71
2022/12/17 21:02:56;;;;;;;25.50;15.40;;;-1.50;96.40;;;;;;5054548;28;20184;-71
2022/12/17 21:05:22;;;;;;;18.90;13.67;;;-1.50;96.70;;;;;;5075350;28;20200;-71
2022/12/17 21:07:49;;;;;;;20.77;14.37;;;-1.50;95.30;;;;;;5025156;28;20188;-71
2022/12/17 21:10:15;;;;;;;28.57;15.77;;;-1.50;96.90;;;;;;5055668;28;20443;-71
2022/12/17 21:15:26;;;;;;;22.87;15.23;;;-1.60;96.40;;;;;;5049677;28;20291;-71
2022/12/17 21:17:52;;;;;;;22.10;15.90;;;-1.70;97.20;;;;;;5030027;28;20529;-71
2022/12/17 21:20:17;;;;;;;23.43;15.83;;;-1.70;97.20;;;;;;5037548;28;20184;-71
2022/12/17 21:22:43;;;;;;;21.97;14.57;;;-1.70;97.20;;;;;;5032374;28;20227;-70
2022/12/17 21:25:09;;;;;;;22.40;14.27;;;-1.70;97.80;;;;;;5026792;28;20196;-71
2022/12/17 21:27:35;;;;;;;20.30;14.70;;;-1.70;96.80;;;;;;5058330;28;20190;-70
2022/12/17 21:30:01;;;;;;;23.03;12.97;;;-1.70;97.10;;;;;;5023156;28;20188;-70
2022/12/17 21:32:30;;;;;;;20.47;12.87;;;-1.70;97.10;;;;;;5044294;28;20440;-70
2022/12/17 21:34:55;;;;;;;19.13;12.13;;;-1.80;97.10;;;;;;5056413;28;20192;-70
2022/12/17 21:37:21;;;;;;;22.37;14.30;;;-1.80;96.70;;;;;;5052833;28;20477;-70
2022/12/17 21:39:47;;;;;;;21.53;13.87;;;-1.90;96.70;;;;;;5008590;28;20220;-70
2022/12/17 21:44:56;;;;;;;20.97;15.27;;;-1.90;97.60;;;;;;5041867;28;20277;-70
2022/12/17 21:47:22;;;;;;;20.10;14.47;;;-1.90;97.60;;;;;;5038497;28;20439;-70
2022/12/17 21:49:48;;;;;;;18.57;13.23;;;-2.00;96.90;;;;;;5041230;28;20202;-70
2022/12/17 21:52:14;;;;;;;21.03;13.17;;;-2.10;96.10;;;;;;5043789;28;20443;-70
2022/12/17 21:54:39;;;;;;;20.47;14.20;;;-2.10;96.40;;;;;;5028785;28;20204;-70
2022/12/17 21:57:05;;;;;;;22.43;14.93;;;-2.20;95.70;;;;;;5052545;28;20575;-70
2022/12/17 21:59:31;;;;;;;22.27;15.50;;;-2.20;96.80;;;;;;5033527;28;20212;-70
2022/12/17 22:01:56;;;;;;;18.53;13.23;;;-2.30;96.30;;;;;;5020271;28;20188;-70
2022/12/17 22:04:23;;;;;;;18.13;13.20;;;-2.30;96.80;;;;;;5036887;28;20210;-70
2022/12/17 22:06:48;;;;;;;20.73;13.50;;;-2.30;96.80;;;;;;5042673;28;20207;-70
2022/12/17 22:09:14;;;;;;;23.37;13.87;;;-2.40;96.80;;;;;;5041865;28;20524;-70
2022/12/17 22:11:40;;;;;;;21.03;13.90;;;-2.40;96.80;;;;;;5037195;28;20196;-70
2022/12/17 22:14:08;;;;;;;21.13;13.30;;;-2.40;96.60;;;;;;5050798;28;21035;-69
2022/12/17 22:16:37;;;;;;;21.17;13.63;;;-2.50;96.80;;;;;;5028067;28;20219;-70
2022/12/17 22:19:04;;;;;;;18.80;12.77;;;-2.50;96.60;;;;;;5046074;28;20410;-69
2022/12/17 22:21:33;;;;;;;18.23;12.37;;;-2.50;96.60;;;;;;5059867;28;20422;-69
2022/12/17 22:23:59;;;;;;;19.77;12.40;;;-2.60;96.50;;;;;;5046544;28;20485;-69
2022/12/17 22:26:24;;;;;;;20.43;12.47;;;-2.60;96.50;;;;;;5048860;28;20424;-69
2022/12/17 22:28:50;;;;;;;18.90;12.43;;;-2.60;96.10;;;;;;5019507;28;20195;-69
2022/12/17 22:34:04;;;;;;;23.90;13.30;;;-2.70;95.90;;;;;;5040738;28;20257;-69
2022/12/17 22:36:31;;;;;;;20.37;13.43;;;-2.80;95.70;;;;;;5038248;28;20470;-69
2022/12/17 22:39:09;;;;;;;16.43;11.73;;;-2.80;96.30;;;;;;5052828;28;20417;-69
2022/12/17 22:44:19;;;;;;;18.50;11.93;;;-2.80;96.60;;;;;;5031834;28;20467;-69
2022/12/17 22:46:45;;;;;;;18.60;12.77;;;-2.90;96.60;;;;;;5036613;28;20487;-69
2022/12/17 22:49:11;;;;;;;20.03;13.07;;;-2.90;96.50;;;;;;5054867;28;20214;-69
2022/12/17 22:51:38;;;;;;;21.73;14.33;;;-2.90;96.80;;;;;;5024593;28;20434;-69
2022/12/17 22:54:04;;;;;;;17.73;12.30;;;-2.90;96.60;;;;;;5035469;28;20246;-68
2022/12/17 22:56:30;;;;;;;19.00;13.53;;;-3.00;96.50;;;;;;5036275;28;20466;-68
2022/12/17 22:58:56;;;;;;;19.20;13.03;;;-3.00;95.80;;;;;;5018310;28;20453;-68
2022/12/17 23:01:22;;;;;;;21.93;13.30;;;-3.00;96.10;;;;;;5045098;28;20188;-68
2022/12/17 23:03:48;;;;;;;20.37;13.03;;;-3.00;95.90;;;;;;5033871;28;20226;-68
2022/12/17 23:06:17;;;;;;;19.23;12.13;;;-3.10;95.50;;;;;;5037212;28;20478;-68
2022/12/17 23:08:43;;;;;;;20.17;13.60;;;-3.20;94.40;;;;;;5038358;28;20668;-68
2022/12/17 23:11:21;;;;;;;18.03;12.43;;;-3.20;95.50;;;;;;5036209;28;20448;-68
2022/12/17 23:13:47;;;;;;;18.67;12.07;;;-3.20;96.00;;;;;;5051208;28;20436;-68
2022/12/17 23:16:13;;;;;;;22.33;13.27;;;-3.20;96.50;;;;;;5038865;28;20444;-68
2022/12/17 23:18:40;;;;;;;16.73;11.47;;;-3.20;96.10;;;;;;5082157;28;20183;-69
2022/12/17 23:21:06;;;;;;;17.50;11.03;;;-3.20;96.10;;;;;;5048430;28;20430;-69
2022/12/17 23:23:32;;;;;;;16.03;10.50;;;-3.20;95.80;;;;;;5053857;28;20580;-68
2022/12/17 23:25:57;;;;;;;12.30;9.17;;;-3.20;96.30;;;;;;5026595;28;20489;-68
2022/12/17 23:28:23;;;;;;;16.00;9.33;;;-3.30;95.70;;;;;;5034695;28;20202;-69
2022/12/17 23:30:49;;;;;;;16.83;10.00;;;-3.30;95.70;;;;;;5030334;28;20188;-69
2022/12/17 23:33:14;;;;;;;18.13;10.73;;;-3.40;95.70;;;;;;5019082;28;20210;-69
2022/12/17 23:35:40;;;;;;;14.03;9.30;;;-3.40;95.40;;;;;;5027771;28;20214;-69
2022/12/17 23:38:06;;;;;;;12.93;9.60;;;-3.40;95.80;;;;;;5034027;28;20230;-69
2022/12/17 23:40:32;;;;;;;11.73;7.70;;;-3.40;96.40;;;;;;5013138;28;20653;-68
2022/12/17 23:42:59;;;;;;;11.07;7.37;;;-3.40;95.50;;;;;;5021829;28;20438;-69
2022/12/17 23:45:25;;;;;;;10.07;6.60;;;-3.50;95.40;;;;;;5033951;28;20785;-69
2022/12/17 23:47:50;;;;;;;14.63;11.20;;;-3.50;96.10;;;;;;5034699;28;20530;-69
2022/12/17 23:50:16;;;;;;;16.03;11.03;;;-3.50;95.80;;;;;;5051810;28;20191;-69
2022/12/17 23:52:42;;;;;;;13.00;10.70;;;-3.50;96.00;;;;;;5021488;28;20197;-69
2022/12/17 23:55:08;;;;;;;17.23;12.10;;;-3.50;96.20;;;;;;5065758;28;20206;-69
2022/12/17 23:57:33;;;;;;;20.30;12.63;;;-3.50;96.50;;;;;;5048591;28;20244;-69
2022/12/17 23:59:59;;;;;;;17.23;11.40;;;-3.50;96.30;;;;;;5036362;28;20191;-69
